Time;durP1;ratioP1;P1;durP2;ratioP2;P2;SDS_P1;SDS_P2;PMS_P1;PMS_P2;Temp;Humidity;BMP_temperature;BMP_pressure;BME280_temperature;BME280_humidity;BME280_pressure;Samples;Min_cycle;Max_cycle;Signal;HPM_P1;HPM_P2
2022/10/11 00:01:21;;;;;;;11.35;3.50;;;;;;;7.09;100.00;102424.91;5074058;28;20593;-66
2022/10/11 00:03:46;;;;;;;8.98;2.83;;;;;;;7.07;100.00;102430.06;5088020;28;20051;-66
2022/10/11 00:06:11;;;;;;;10.40;2.92;;;;;;;7.09;100.00;102441.53;5074782;28;20534;-66
2022/10/11 00:08:37;;;;;;;10.60;2.65;;;;;;;7.06;100.00;102438.72;5075408;28;20452;-66
2022/10/11 00:11:05;;;;;;;4.82;2.20;;;;;;;7.00;100.00;102437.47;5080300;28;20024;-66
2022/10/11 00:13:30;;;;;;;8.45;2.45;;;;;;;6.94;100.00;102438.03;5094068;28;20028;-67
2022/10/11 00:15:57;;;;;;;12.30;2.42;;;;;;;6.97;100.00;102440.81;5094061;28;20030;-66
2022/10/11 00:18:22;;;;;;;11.63;3.15;;;;;;;6.98;100.00;102442.63;5090380;28;20024;-65
2022/10/11 00:20:48;;;;;;;6.38;2.40;;;;;;;7.05;100.00;102443.88;5074740;28;20024;-66
2022/10/11 00:23:13;;;;;;;9.43;2.55;;;;;;;7.07;100.00;102448.38;5092044;28;20051;-66
2022/10/11 00:25:39;;;;;;;7.90;2.17;;;;;;;7.06;100.00;102448.31;5087532;28;20181;-66
2022/10/11 00:28:05;;;;;;;7.93;2.33;;;;;;;7.02;100.00;102447.22;5092189;28;20081;-66
2022/10/11 00:30:31;;;;;;;10.40;2.45;;;;;;;6.97;100.00;102448.66;5085383;28;20037;-66
2022/10/11 00:32:56;;;;;;;9.13;2.58;;;;;;;6.94;100.00;102453.72;5073343;28;20025;-65
2022/10/11 00:35:22;;;;;;;2.60;1.77;;;;;;;6.96;100.00;102446.88;5093113;28;20042;-65
2022/10/11 00:37:47;;;;;;;9.98;2.83;;;;;;;6.94;100.00;102453.72;5078087;28;20025;-65
2022/10/11 00:40:16;;;;;;;8.30;2.58;;;;;;;6.92;100.00;102455.38;5074416;28;20028;-65
2022/10/11 00:42:41;;;;;;;4.63;2.05;;;;;;;6.89;100.00;102456.09;5073358;28;20070;-65
2022/10/11 00:45:25;;;;;;;12.20;2.58;;;;;;;6.94;100.00;102461.59;5073067;28;20024;-65
2022/10/11 00:47:52;;;;;;;12.25;2.80;;;;;;;6.88;100.00;102458.63;5081097;28;20028;-65
2022/10/11 00:50:21;;;;;;;7.47;2.58;;;;;;;6.88;100.00;102463.88;5073009;28;20029;-66
2022/10/11 00:52:53;;;;;;;9.52;1.98;;;;;;;6.89;100.00;102465.66;5073175;28;20425;-65
2022/10/11 00:55:21;;;;;;;7.30;1.90;;;;;;;6.91;100.00;102466.66;5087545;28;20162;-66
2022/10/11 00:57:51;;;;;;;8.77;2.30;;;;;;;6.87;100.00;102467.28;5073102;28;20032;-66
2022/10/11 01:00:16;;;;;;;8.55;2.15;;;;;;;6.90;100.00;102464.84;5074035;28;20033;-66
2022/10/11 01:02:42;;;;;;;6.75;2.40;;;;;;;6.86;100.00;102460.25;5078930;28;20441;-66
2022/10/11 01:05:12;;;;;;;6.47;2.45;;;;;;;6.82;100.00;102463.50;5092172;28;20016;-67
2022/10/11 01:07:38;;;;;;;11.75;2.20;;;;;;;6.78;100.00;102464.13;5092734;28;20069;-67
2022/10/11 01:10:04;;;;;;;11.68;2.22;;;;;;;6.75;100.00;102462.25;5092859;28;20024;-65
2022/10/11 01:12:30;;;;;;;12.40;2.50;;;;;;;6.83;100.00;102466.19;5092620;28;20032;-65
2022/10/11 01:15:01;;;;;;;9.40;2.88;;;;;;;6.81;100.00;102462.59;5091340;28;20020;-66
2022/10/11 01:17:53;;;;;;;9.93;2.40;;;;;;;6.78;100.00;102466.75;5092523;28;20097;-66
2022/10/11 01:20:44;;;;;;;12.30;2.15;;;;;;;6.75;100.00;102468.38;5085306;28;20031;-66
2022/10/11 01:23:27;;;;;;;11.93;2.42;;;;;;;6.67;100.00;102463.50;5078028;28;20039;-66
2022/10/11 01:26:03;;;;;;;9.18;2.00;;;;;;;6.67;100.00;102472.25;5090741;28;20024;-66
2022/10/11 01:28:45;;;;;;;12.10;2.38;;;;;;;6.62;100.00;102471.09;5090965;28;20032;-66
2022/10/11 01:31:20;;;;;;;9.55;2.03;;;;;;;6.63;100.00;102478.09;5083443;28;20435;-67
2022/10/11 01:33:54;;;;;;;10.95;2.05;;;;;;;6.61;100.00;102478.84;5082367;28;20040;-66
2022/10/11 01:36:32;;;;;;;9.90;2.03;;;;;;;6.57;100.00;102478.66;5072693;28;20032;-66
2022/10/11 01:39:36;;;;;;;10.73;1.58;;;;;;;6.52;100.00;102479.19;5073955;28;20446;-66
2022/10/11 01:42:04;;;;;;;5.72;1.73;;;;;;;6.49;100.00;102479.03;5073460;28;20042;-66
2022/10/11 01:44:31;;;;;;;8.23;2.22;;;;;;;6.56;100.00;102470.72;5072118;28;20020;-66
2022/10/11 01:46:56;;;;;;;8.95;2.17;;;;;;;6.55;100.00;102492.44;5088922;28;20371;-66
2022/10/11 01:49:22;;;;;;;15.68;2.85;;;;;;;6.59;100.00;102483.97;5085489;28;20025;-66
2022/10/11 01:51:51;;;;;;;4.95;1.75;;;;;;;6.57;100.00;102480.38;5078542;28;20024;-66
2022/10/11 01:54:55;;;;;;;11.45;2.83;;;;;;;6.51;100.00;102477.38;5090970;28;20066;-66
2022/10/11 01:57:41;;;;;;;12.27;2.47;;;;;;;6.51;100.00;102485.22;5081465;28;20048;-66
2022/10/11 02:00:14;;;;;;;6.43;2.78;;;;;;;6.52;100.00;102479.19;5087419;28;20032;-66
2022/10/11 02:03:01;;;;;;;8.60;1.88;;;;;;;6.48;100.00;102485.94;5089004;28;20028;-66
2022/10/11 02:05:34;;;;;;;12.50;1.90;;;;;;;6.50;100.00;102483.44;5085714;28;20061;-65
2022/10/11 02:08:02;;;;;;;;;;;;;;;6.53;100.00;102488.84;5093049;28;20146;-67
2022/10/11 02:10:41;;;;;;;11.88;2.65;;;;;;;6.58;100.00;102484.81;5075642;28;19912;-65
2022/10/11 02:13:21;;;;;;;7.18;1.67;;;;;;;6.56;100.00;102484.69;5076114;28;20024;-66
2022/10/11 02:15:48;;;;;;;6.03;1.70;;;;;;;6.58;100.00;102469.13;5075867;28;20065;-66
2022/10/11 02:18:23;;;;;;;11.88;2.63;;;;;;;6.54;100.00;102473.25;5090852;28;20024;-67
2022/10/11 02:20:50;;;;;;;6.20;1.70;;;;;;;6.53;100.00;102483.63;5094812;28;20363;-67
2022/10/11 02:23:30;;;;;;;6.50;1.73;;;;;;;6.49;100.00;102485.13;5095981;28;20043;-66
2022/10/11 02:25:57;;;;;;;12.60;2.28;;;;;;;6.51;100.00;102482.63;5095933;28;20032;-66
2022/10/11 02:28:32;;;;;;;3.60;1.52;;;;;;;6.50;100.00;102475.59;5078390;28;20024;-66
2022/10/11 02:31:01;;;;;;;8.75;1.90;;;;;;;6.47;100.00;102475.41;5095305;28;20055;-66
2022/10/11 02:33:37;;;;;;;4.95;1.77;;;;;;;6.45;100.00;102483.16;5094038;28;20016;-67
2022/10/11 02:36:36;;;;;;;10.27;2.00;;;;;;;6.39;100.00;102481.09;5095120;28;20032;-66
2022/10/11 02:39:11;;;;;;;7.03;2.10;;;;;;;6.47;100.00;102478.00;5075972;28;20040;-66
2022/10/11 02:41:39;;;;;;;6.40;1.83;;;;;;;6.47;100.00;102481.56;5088310;28;20032;-66
2022/10/11 02:44:08;;;;;;;6.68;1.92;;;;;;;6.41;100.00;102482.06;5093694;28;20016;-66
2022/10/11 02:46:36;;;;;;;5.35;1.77;;;;;;;6.37;100.00;102474.84;5095841;28;20509;-66
2022/10/11 02:49:02;;;;;;;4.97;1.90;;;;;;;6.34;100.00;102482.50;5093933;28;20062;-66
2022/10/11 02:51:31;;;;;;;7.80;1.77;;;;;;;6.32;100.00;102480.59;5095690;28;20417;-67
2022/10/11 02:53:56;;;;;;;8.52;1.73;;;;;;;6.34;100.00;102482.50;5085111;28;20016;-67
2022/10/11 02:56:21;;;;;;;8.07;2.33;;;;;;;6.28;100.00;102479.53;5075145;28;20115;-67
2022/10/11 02:58:47;;;;;;;10.32;2.08;;;;;;;6.26;100.00;102486.38;5075259;28;20024;-65
2022/10/11 03:01:13;;;;;;;7.60;2.20;;;;;;;6.22;100.00;102492.22;5084651;28;20059;-64
2022/10/11 03:03:38;;;;;;;3.65;1.50;;;;;;;6.23;100.00;102491.44;5087487;28;20024;-66
2022/10/11 03:06:04;;;;;;;9.35;2.03;;;;;;;6.18;100.00;102492.84;5081088;28;20016;-65
2022/10/11 03:08:29;;;;;;;5.22;2.05;;;;;;;6.18;100.00;102492.84;5081501;28;20528;-65
2022/10/11 03:10:55;;;;;;;5.45;1.98;;;;;;;6.15;100.00;102483.09;5074800;28;20427;-66
2022/10/11 03:13:20;;;;;;;4.53;1.88;;;;;;;6.22;100.00;102498.34;5079358;28;20032;-66
2022/10/11 03:15:50;;;;;;;4.47;1.92;;;;;;;6.14;100.00;102502.19;5088418;28;20031;-66
2022/10/11 03:18:15;;;;;;;6.35;1.83;;;;;;;6.14;100.00;102504.81;5081224;28;20043;-65
2022/10/11 03:20:41;;;;;;;9.55;2.53;;;;;;;6.10;100.00;102494.97;5092532;28;20456;-66
2022/10/11 03:23:07;;;;;;;5.53;1.98;;;;;;;6.08;100.00;102497.50;5091819;28;20028;-65
2022/10/11 03:25:32;;;;;;;10.27;2.20;;;;;;;6.15;100.00;102508.34;5080619;28;20020;-65
2022/10/11 03:27:57;;;;;;;7.10;1.80;;;;;;;6.10;100.00;102496.72;5091748;28;20139;-65
2022/10/11 03:30:23;;;;;;;4.63;1.88;;;;;;;6.03;100.00;102503.25;5077824;28;20028;-65
2022/10/11 03:32:48;;;;;;;7.47;2.40;;;;;;;5.99;100.00;102501.28;5074306;28;20031;-65
2022/10/11 03:35:15;;;;;;;8.48;2.72;;;;;;;5.93;100.00;102499.16;5075255;28;20444;-65
2022/10/11 03:37:40;;;;;;;6.72;2.72;;;;;;;5.98;100.00;102499.47;5091350;28;20035;-65
2022/10/11 03:40:07;;;;;;;5.72;1.83;;;;;;;5.95;100.00;102501.84;5089659;28;20016;-65
2022/10/11 03:42:33;;;;;;;18.33;3.53;;;;;;;6.06;100.00;102506.97;5074656;28;20028;-65
2022/10/11 03:45:00;;;;;;;13.55;2.42;;;;;;;6.10;100.00;102505.44;5074678;28;20024;-65
2022/10/11 03:47:26;;;;;;;7.97;1.88;;;;;;;6.04;100.00;102505.97;5078238;28;20471;-65
2022/10/11 03:49:51;;;;;;;10.00;2.45;;;;;;;6.02;100.00;102507.59;5087247;28;20034;-66
2022/10/11 03:52:16;;;;;;;5.60;2.53;;;;;;;6.06;100.00;102509.59;5089491;28;20467;-66
2022/10/11 03:54:42;;;;;;;6.00;2.08;;;;;;;5.99;100.00;102501.28;5093833;28;20501;-65
2022/10/11 03:57:07;;;;;;;11.00;2.45;;;;;;;5.95;100.00;102510.59;5088643;28;20879;-65
2022/10/11 03:59:33;;;;;;;8.18;2.15;;;;;;;6.01;100.00;102505.78;5074180;28;20024;-65
2022/10/11 04:01:58;;;;;;;6.70;2.10;;;;;;;5.96;100.00;102509.78;5087633;28;20368;-66
2022/10/11 04:04:23;;;;;;;5.07;2.30;;;;;;;5.96;100.00;102509.78;5088717;28;20494;-65
2022/10/11 04:06:49;;;;;;;5.30;1.80;;;;;;;5.91;100.00;102511.19;5089153;28;20021;-65
2022/10/11 04:09:14;;;;;;;7.05;2.50;;;;;;;5.97;100.00;102508.97;5084702;28;20057;-66
2022/10/11 04:11:39;;;;;;;8.80;2.38;;;;;;;5.89;100.00;102511.09;5092951;28;20051;-66
2022/10/11 04:14:05;;;;;;;8.65;2.80;;;;;;;5.86;100.00;102510.00;5075112;28;20032;-66
2022/10/11 04:16:30;;;;;;;6.63;2.20;;;;;;;5.84;100.00;102520.34;5081159;28;20031;-66
2022/10/11 04:18:55;;;;;;;4.03;1.90;;;;;;;5.82;100.00;102523.69;5075945;28;20028;-66
2022/10/11 04:21:21;;;;;;;6.75;1.92;;;;;;;5.84;100.00;102529.91;5073828;28;20035;-66
2022/10/11 04:23:46;;;;;;;9.98;3.20;;;;;;;5.75;100.00;102527.59;5074875;28;20063;-66
2022/10/11 04:26:11;;;;;;;7.47;1.98;;;;;;;5.72;100.00;102525.75;5078196;28;20027;-67
2022/10/11 04:28:37;;;;;;;8.10;2.53;;;;;;;5.72;100.00;102525.75;5083703;28;20101;-66
2022/10/11 04:31:04;;;;;;;9.25;2.30;;;;;;;5.71;100.00;102530.84;5084132;28;20043;-66
2022/10/11 04:33:29;;;;;;;8.50;2.25;;;;;;;5.74;100.00;102529.34;5091072;28;20080;-66
2022/10/11 04:35:55;;;;;;;6.88;2.30;;;;;;;5.73;100.00;102532.75;5089973;28;20111;-66
2022/10/11 04:38:22;;;;;;;9.93;2.50;;;;;;;5.77;100.00;102536.47;5092116;28;20024;-66
2022/10/11 04:40:47;;;;;;;13.30;2.10;;;;;;;5.84;100.00;102528.19;5085868;28;20024;-66
2022/10/11 04:43:15;;;;;;;10.75;2.47;;;;;;;5.90;100.00;102538.13;5073441;28;20399;-66
2022/10/11 04:45:41;;;;;;;7.50;2.40;;;;;;;6.03;100.00;102543.34;5073431;28;20024;-66
2022/10/11 04:48:06;;;;;;;9.77;3.45;;;;;;;6.06;100.00;102546.19;5075041;28;20385;-66
2022/10/11 04:50:32;;;;;;;12.48;3.08;;;;;;;6.22;100.00;102534.06;5081223;28;20035;-67
2022/10/11 04:52:57;;;;;;;18.27;3.00;;;;;;;6.26;100.00;102541.28;5087978;28;20490;-67
2022/10/11 04:55:23;;;;;;;11.77;2.97;;;;;;;6.27;100.00;102537.84;5074988;28;20051;-67
2022/10/11 04:57:48;;;;;;;8.10;2.95;;;;;;;6.33;100.00;102539.94;5074521;28;20376;-67
2022/10/11 05:00:14;;;;;;;9.90;2.65;;;;;;;6.36;100.00;102542.72;5076638;28;20020;-66
2022/10/11 05:02:39;;;;;;;11.43;2.67;;;;;;;6.40;100.00;102537.81;5083095;28;20036;-66
2022/10/11 05:05:05;;;;;;;15.43;3.53;;;;;;;6.43;100.00;102542.31;5077767;28;20036;-65
2022/10/11 05:07:30;;;;;;;10.50;3.10;;;;;;;6.47;100.00;102546.00;5083858;28;20016;-66
2022/10/11 05:09:56;;;;;;;16.80;2.90;;;;;;;6.54;100.00;102540.34;5084879;28;20036;-66
2022/10/11 05:12:21;;;;;;;14.88;3.35;;;;;;;6.58;100.00;102542.34;5078340;28;20035;-66
2022/10/11 05:14:46;;;;;;;11.15;3.00;;;;;;;6.62;100.00;102553.88;5081698;28;20028;-67
2022/10/11 05:17:12;;;;;;;11.82;3.17;;;;;;;6.70;100.00;102548.31;5081235;28;20107;-66
2022/10/11 05:19:37;;;;;;;13.65;3.53;;;;;;;6.77;100.00;102554.81;5090586;28;20085;-67
2022/10/11 05:22:02;;;;;;;18.60;3.58;;;;;;;6.81;100.00;102553.25;5083518;28;20048;-66
2022/10/11 05:24:28;;;;;;;11.60;3.00;;;;;;;6.81;100.00;102561.09;5078423;28;20038;-65
2022/10/11 05:26:53;;;;;;;14.70;3.50;;;;;;;6.78;100.00;102556.59;5078896;28;20103;-68
2022/10/11 05:29:18;;;;;;;7.95;2.85;;;;;;;6.79;100.00;102557.53;5079441;28;20028;-67
2022/10/11 05:31:44;;;;;;;10.68;2.80;;;;;;;6.74;100.00;102560.75;5087380;28;20067;-68
2022/10/11 05:34:09;;;;;;;7.35;3.20;;;;;;;6.73;100.00;102564.19;5081479;28;20032;-68
2022/10/11 05:36:34;;;;;;;7.85;2.60;;;;;;;6.73;100.00;102568.53;5076293;28;20107;-68
2022/10/11 05:39:00;;;;;;;7.82;3.17;;;;;;;6.73;100.00;102564.19;5077750;28;20036;-69
2022/10/11 05:41:25;;;;;;;10.20;3.55;;;;;;;6.71;100.00;102565.78;5082148;28;20497;-68
2022/10/11 05:43:50;;;;;;;14.65;3.35;;;;;;;6.66;100.00;102564.63;5091091;28;20028;-67
2022/10/11 05:46:16;;;;;;;10.43;3.30;;;;;;;6.64;100.00;102571.47;5082517;28;20032;-68
2022/10/11 05:48:41;;;;;;;8.25;2.65;;;;;;;6.63;100.00;102572.28;5092426;28;20035;-68
2022/10/11 05:51:09;;;;;;;10.50;3.28;;;;;;;6.64;100.00;102575.81;5082735;28;20174;-67
2022/10/11 05:53:35;;;;;;;13.15;3.13;;;;;;;6.65;100.00;102580.25;5081633;28;20108;-69
2022/10/11 05:56:00;;;;;;;24.98;3.15;;;;;;;6.66;100.00;102572.47;5077278;28;20123;-67
2022/10/11 05:58:25;;;;;;;12.68;3.30;;;;;;;6.70;100.00;102579.69;5079478;28;20032;-66
2022/10/11 06:00:51;;;;;;;12.20;3.30;;;;;;;6.66;100.00;102577.72;5086234;28;20055;-74
2022/10/11 06:03:16;;;;;;;12.85;3.17;;;;;;;6.68;100.00;102585.66;5088226;28;20020;-67
2022/10/11 06:05:42;;;;;;;15.80;3.10;;;;;;;6.71;100.00;102581.47;5086136;28;20032;-67
2022/10/11 06:08:09;;;;;;;16.42;3.33;;;;;;;6.65;100.00;102595.94;5085619;28;20031;-66
2022/10/11 06:10:36;;;;;;;18.67;3.40;;;;;;;6.64;100.00;102594.13;5078740;28;20036;-66
2022/10/11 06:13:01;;;;;;;28.52;5.03;;;;;;;6.62;100.00;102595.72;5077703;28;20033;-66
2022/10/11 06:15:27;;;;;;;21.48;5.93;;;;;;;6.56;100.00;102593.66;5077038;28;20377;-66
2022/10/11 06:17:53;;;;;;;30.00;4.63;;;;;;;6.57;100.00;102593.72;5089399;28;20107;-66
2022/10/11 06:20:18;;;;;;;15.95;3.65;;;;;;;6.62;100.00;102601.88;5094580;28;20039;-66
2022/10/11 06:22:44;;;;;;;20.88;4.25;;;;;;;6.63;100.00;102598.44;5087715;28;20040;-67
2022/10/11 06:25:09;;;;;;;23.40;3.92;;;;;;;6.65;100.00;102598.56;5078667;28;20028;-67
2022/10/11 06:27:35;;;;;;;14.27;3.13;;;;;;;6.66;100.00;102596.03;5085877;28;20020;-67
2022/10/11 06:30:00;;;;;;;18.48;3.40;;;;;;;6.66;100.00;102601.25;5088862;28;20392;-68
2022/10/11 06:32:26;;;;;;;13.63;3.95;;;;;;;6.72;100.00;102614.69;5083059;28;20085;-67
2022/10/11 06:34:51;;;;;;;18.23;6.10;;;;;;;6.75;100.00;102613.97;5093839;28;20035;-67
2022/10/11 06:37:16;;;;;;;14.52;3.92;;;;;;;6.81;100.00;102608.22;5085513;28;20024;-66
2022/10/11 06:39:42;;;;;;;33.08;3.90;;;;;;;6.83;100.00;102612.72;5079261;28;20411;-67
2022/10/11 06:42:10;;;;;;;13.35;3.58;;;;;;;6.88;100.00;102610.41;5080705;28;20046;-67
2022/10/11 06:44:35;;;;;;;15.90;3.88;;;;;;;6.94;100.00;102612.47;5087815;28;20039;-67
2022/10/11 06:47:00;;;;;;;24.83;3.78;;;;;;;7.00;100.00;102620.69;5075628;28;20448;-67
2022/10/11 06:49:26;;;;;;;23.17;4.32;;;;;;;7.06;100.00;102621.94;5077673;28;20380;-67
2022/10/11 06:51:51;;;;;;;17.17;3.90;;;;;;;7.12;100.00;102624.03;5092794;28;20028;-66
2022/10/11 06:54:16;;;;;;;9.23;3.63;;;;;;;7.18;100.00;102621.78;5084479;28;20111;-67
2022/10/11 06:56:44;;;;;;;18.15;4.03;;;;;;;7.24;100.00;102621.25;5085565;28;20128;-67
2022/10/11 06:59:10;;;;;;;17.90;4.10;;;;;;;7.32;100.00;102633.06;5083187;28;20024;-67
2022/10/11 07:01:36;;;;;;;16.70;4.50;;;;;;;7.38;100.00;102622.97;5084473;28;20016;-67
2022/10/11 07:04:01;;;;;;;17.25;4.90;;;;;;;7.45;100.00;102631.16;5079775;28;20371;-67
2022/10/11 07:06:28;;;;;;;12.65;3.60;;;;;;;7.52;100.00;102633.34;5086317;28;20134;-67
2022/10/11 07:08:53;;;;;;;12.13;3.78;;;;;;;7.67;100.00;102634.22;5093289;28;20628;-67
2022/10/11 07:11:24;;;;;;;12.52;3.33;;;;;;;7.82;100.00;102638.53;5076389;28;20028;-67
2022/10/11 07:14:03;;;;;;;27.70;4.15;;;;;;;7.99;100.00;102642.09;5087685;28;20390;-67
2022/10/11 07:16:29;;;;;;;20.67;4.78;;;;;;;8.16;100.00;102637.81;5080937;28;20031;-67
2022/10/11 07:18:59;;;;;;;8.85;3.83;;;;;;;8.30;100.00;102647.31;5085499;28;20036;-68
2022/10/11 07:21:26;;;;;;;14.85;4.13;;;;;;;8.45;100.00;102647.31;5089015;28;20099;-68
2022/10/11 07:23:51;;;;;;;18.65;4.20;;;;;;;8.56;100.00;102643.53;5081757;28;20032;-67
2022/10/11 07:26:18;;;;;;;12.50;4.00;;;;;;;8.73;100.00;102649.69;5087234;28;20035;-66
2022/10/11 07:28:43;;;;;;;12.50;4.70;;;;;;;8.85;100.00;102645.91;5092481;28;20379;-68
2022/10/11 07:31:21;;;;;;;15.88;4.28;;;;;;;9.01;100.00;102648.53;5080848;28;20031;-68
2022/10/11 07:33:47;;;;;;;18.60;4.43;;;;;;;9.10;100.00;102654.25;5074353;28;20043;-68
2022/10/11 07:36:13;;;;;;;17.80;4.30;;;;;;;9.20;100.00;102654.75;5091377;28;20028;-68
2022/10/11 07:38:39;;;;;;;15.80;4.15;;;;;;;9.30;100.00;102656.09;5089973;28;20471;-67
2022/10/11 07:41:06;;;;;;;13.43;3.97;;;;;;;9.37;100.00;102656.50;5092444;28;20039;-67
2022/10/11 07:43:31;;;;;;;18.58;4.90;;;;;;;9.45;100.00;102662.13;5088847;28;20031;-67
2022/10/11 07:45:59;;;;;;;14.48;3.88;;;;;;;9.52;100.00;102655.44;5093133;28;20028;-68
2022/10/11 07:48:24;;;;;;;16.50;4.68;;;;;;;9.58;100.00;102661.03;5091918;28;20479;-68
2022/10/11 07:50:50;;;;;;;17.63;4.07;;;;;;;9.62;100.00;102656.00;5078348;28;20063;-68
2022/10/11 07:53:15;;;;;;;11.55;3.80;;;;;;;9.73;100.00;102664.41;5086757;28;20035;-68
2022/10/11 07:55:41;;;;;;;15.60;4.82;;;;;;;9.77;100.00;102666.34;5093722;28;20656;-67
2022/10/11 07:58:11;;;;;;;13.80;4.13;;;;;;;9.84;100.00;102669.31;5093197;28;20111;-67
2022/10/11 08:00:38;;;;;;;19.08;4.55;;;;;;;9.87;100.00;102669.44;5073907;28;20442;-68
2022/10/11 08:03:05;;;;;;;13.75;4.35;;;;;;;9.88;100.00;102672.16;5077588;28;20037;-67
2022/10/11 08:05:31;;;;;;;22.70;4.30;;;;;;;9.92;100.00;102676.72;5074048;28;20036;-67
2022/10/11 08:07:57;;;;;;;15.18;3.72;;;;;;;9.95;100.00;102676.88;5080525;28;20020;-67
2022/10/11 08:10:23;;;;;;;17.80;4.05;;;;;;;10.01;100.00;102678.00;5092684;28;20024;-68
2022/10/11 08:12:48;;;;;;;13.48;3.92;;;;;;;10.05;100.00;102672.97;5086946;28;20468;-67
2022/10/11 08:15:14;;;;;;;14.95;4.00;;;;;;;10.08;100.00;102678.38;5073945;28;20035;-68
2022/10/11 08:17:39;;;;;;;18.95;4.68;;;;;;;10.15;100.00;102678.66;5087895;28;20032;-66
2022/10/11 08:20:05;;;;;;;12.32;3.83;;;;;;;10.21;100.00;102681.59;5076440;28;20107;-66
2022/10/11 08:22:30;;;;;;;15.57;3.90;;;;;;;10.30;100.00;102684.66;5092950;28;20467;-66
2022/10/11 08:24:56;;;;;;;17.33;3.65;;;;;;;10.39;100.00;102690.41;5090243;28;20028;-66
2022/10/11 08:27:22;;;;;;;16.90;3.72;;;;;;;10.49;100.00;102685.56;5091449;28;20383;-65
2022/10/11 08:29:47;;;;;;;15.35;2.97;;;;;;;10.57;100.00;102692.97;5093292;28;20526;-66
2022/10/11 08:32:12;;;;;;;13.63;3.58;;;;;;;10.68;100.00;102693.47;5081240;28;20036;-65
2022/10/11 08:34:38;;;;;;;13.48;3.00;;;;;;;10.76;100.00;102686.81;5073558;28;20177;-67
2022/10/11 08:37:03;;;;;;;14.77;4.28;;;;;;;10.91;100.00;102688.38;5074426;28;20049;-68
2022/10/11 08:39:29;;;;;;;10.10;2.97;;;;;;;11.05;100.00;102700.41;5087234;28;20434;-67
2022/10/11 08:42:10;;;;;;;12.18;3.30;;;;;;;11.17;100.00;102699.16;5093235;28;20020;-67
2022/10/11 08:44:43;;;;;;;17.33;3.58;;;;;;;11.35;100.00;102694.66;5083532;28;20467;-67
2022/10/11 08:47:27;;;;;;;14.68;4.85;;;;;;;11.46;100.00;102709.22;5077847;28;20024;-67
2022/10/11 08:49:54;;;;;;;14.50;3.33;;;;;;;11.59;100.00;102709.75;5082010;28;20095;-66
2022/10/11 08:52:49;;;;;;;9.85;2.83;;;;;;;11.77;100.00;102705.25;5085614;28;20090;-67
2022/10/11 08:55:21;;;;;;;12.75;3.85;;;;;;;11.97;100.00;102706.09;5071537;28;20423;-66
2022/10/11 08:57:54;;;;;;;11.32;3.60;;;;;;;12.24;100.00;102707.16;5084414;28;20495;-66
2022/10/11 09:00:20;;;;;;;12.23;3.88;;;;;;;12.50;100.00;102709.94;5075493;28;20124;-66
2022/10/11 09:03:11;;;;;;;11.43;3.42;;;;;;;12.79;100.00;102711.94;5071845;28;20500;-66
2022/10/11 09:05:53;;;;;;;12.20;3.03;;;;;;;13.13;100.00;102715.81;5090579;28;20031;-66
2022/10/11 09:08:21;;;;;;;10.85;3.03;;;;;;;13.38;100.00;102715.81;5073144;28;20021;-66
2022/10/11 09:10:46;;;;;;;15.52;2.50;;;;;;;13.55;100.00;102712.03;5081950;28;20498;-66
2022/10/11 09:13:40;;;;;;;11.88;2.92;;;;;;;13.75;100.00;102715.31;5089986;28;20020;-66
2022/10/11 09:16:30;;;;;;;11.82;3.13;;;;;;;13.89;100.00;102704.28;5077278;28;20032;-66
2022/10/11 09:19:11;;;;;;;13.05;2.50;;;;;;;14.03;100.00;102718.88;5073171;28;20024;-67
2022/10/11 09:21:54;;;;;;;10.82;2.35;;;;;;;14.19;100.00;102716.72;5083165;28;20024;-66
2022/10/11 09:24:46;;;;;;;15.68;2.22;;;;;;;14.38;100.00;102711.16;5073405;28;20039;-66
2022/10/11 09:27:25;;;;;;;13.57;2.70;;;;;;;14.58;100.00;102713.50;5072811;28;20043;-65
2022/10/11 09:30:05;;;;;;;16.70;2.10;;;;;;;14.70;100.00;102715.66;5084140;28;20108;-65
2022/10/11 09:32:46;;;;;;;8.70;1.55;;;;;;;14.98;100.00;102717.38;5079007;28;20056;-65
2022/10/11 09:35:20;;;;;;;5.60;1.50;;;;;;;15.26;100.00;102715.47;5080890;28;20494;-66
2022/10/11 09:37:54;;;;;;;6.13;1.67;;;;;;;15.54;93.82;102718.88;5077144;28;20502;-66
2022/10/11 09:40:35;;;;;;;5.55;1.40;;;;;;;15.54;86.36;102727.72;5079357;28;20082;-65
2022/10/11 09:43:00;;;;;;;11.43;1.75;;;;;;;15.73;84.81;102722.91;5088211;28;20032;-65
2022/10/11 09:45:25;;;;;;;9.75;1.52;;;;;;;15.46;82.93;102718.66;5081777;28;20079;-66
2022/10/11 09:47:53;;;;;;;8.68;1.75;;;;;;;15.38;85.52;102726.41;5083342;28;20020;-65
2022/10/11 09:50:24;;;;;;;11.45;2.00;;;;;;;15.23;87.35;102726.00;5085512;28;20035;-66
2022/10/11 09:52:55;;;;;;;18.92;2.97;;;;;;;14.77;92.15;102730.88;5083847;28;20028;-65
2022/10/11 09:55:35;;;;;;;10.32;2.72;;;;;;;14.79;92.61;102729.19;5089263;28;20058;-65
2022/10/11 09:58:03;;;;;;;8.60;2.10;;;;;;;14.91;94.94;102731.31;5091356;28;20020;-65
2022/10/11 10:00:32;;;;;;;6.18;1.85;;;;;;;15.04;90.28;102732.56;5075988;28;20036;-65
2022/10/11 10:03:01;;;;;;;11.10;1.48;;;;;;;15.16;87.33;102716.97;5072425;28;20021;-66
2022/10/11 10:05:35;;;;;;;9.00;1.98;;;;;;;15.48;82.48;102722.28;5078854;28;20064;-65
2022/10/11 10:08:03;;;;;;;7.38;1.85;;;;;;;15.76;76.83;102721.25;5083880;28;20021;-65
2022/10/11 10:10:40;;;;;;;9.68;1.40;;;;;;;16.23;77.87;102719.72;5082753;28;20025;-65
2022/10/11 10:13:20;;;;;;;13.10;2.15;;;;;;;16.60;78.97;102721.44;5074497;28;20029;-65
2022/10/11 10:15:49;;;;;;;8.05;1.75;;;;;;;16.67;78.23;102725.13;5082699;28;20060;-66
2022/10/11 10:18:22;;;;;;;11.43;1.77;;;;;;;16.73;80.06;102727.03;5072341;28;20145;-65
2022/10/11 10:20:53;;;;;;;10.55;1.90;;;;;;;16.35;69.67;102725.31;5080855;28;20028;-65
2022/10/11 10:23:36;;;;;;;9.60;1.85;;;;;;;15.96;73.68;102721.75;5072459;28;20028;-65
2022/10/11 10:26:18;;;;;;;10.33;1.93;;;;;;;15.79;76.32;102713.34;5089127;28;20032;-65
2022/10/11 10:29:15;;;;;;;6.47;1.15;;;;;;;15.51;77.70;102715.28;5091158;28;20032;-65
2022/10/11 10:31:47;;;;;;;7.07;1.48;;;;;;;15.27;79.50;102722.59;5090008;28;20028;-65
2022/10/11 10:34:22;;;;;;;10.23;2.33;;;;;;;15.20;81.60;102723.28;5093299;28;20464;-65
2022/10/11 10:36:55;;;;;;;10.63;1.80;;;;;;;15.09;83.53;102722.97;5090226;28;20024;-65
2022/10/11 10:39:30;;;;;;;7.63;1.40;;;;;;;15.10;86.22;102725.69;5084863;28;20108;-66
2022/10/11 10:41:56;;;;;;;9.45;1.88;;;;;;;15.00;85.89;102726.25;5093746;28;20112;-65
2022/10/11 10:44:21;;;;;;;13.82;1.80;;;;;;;14.90;86.28;102716.25;5093032;28;20032;-66
2022/10/11 10:46:50;;;;;;;7.65;1.75;;;;;;;14.96;87.73;102720.00;5080762;28;20476;-66
2022/10/11 10:49:25;;;;;;;7.70;1.88;;;;;;;14.93;88.31;102717.22;5095739;28;20024;-67
2022/10/11 10:51:51;;;;;;;11.25;1.85;;;;;;;15.01;89.14;102720.09;5086590;28;20025;-65
2022/10/11 10:54:35;;;;;;;13.77;1.90;;;;;;;15.43;86.13;102713.28;5085902;28;20197;-65
2022/10/11 10:57:08;;;;;;;9.07;1.80;;;;;;;16.01;85.00;102705.94;5079599;28;20373;-65
2022/10/11 10:59:34;;;;;;;14.93;1.75;;;;;;;16.78;80.37;102710.31;5090325;28;20369;-67
2022/10/11 11:02:13;;;;;;;8.98;1.92;;;;;;;17.47;83.45;102713.44;5090251;28;20030;-66
2022/10/11 11:04:47;;;;;;;7.32;1.50;;;;;;;18.14;63.28;102706.56;5075583;28;20085;-67
2022/10/11 11:07:40;;;;;;;11.10;1.73;;;;;;;18.59;58.96;102710.75;5082174;28;20012;-66
2022/10/11 11:10:17;;;;;;;12.25;2.30;;;;;;;19.01;57.42;102706.84;5090861;28;20344;-66
2022/10/11 11:12:57;;;;;;;9.43;1.92;;;;;;;19.21;61.29;102703.50;5076213;28;20044;-65
2022/10/11 11:15:22;;;;;;;7.50;1.52;;;;;;;19.73;58.90;102704.88;5084925;28;20599;-66
2022/10/11 11:17:54;;;;;;;12.98;2.33;;;;;;;19.97;58.00;102706.88;5094037;28;20127;-66
2022/10/11 11:20:31;;;;;;;11.40;2.30;;;;;;;19.87;54.79;102701.47;5086323;28;20161;-66
2022/10/11 11:23:35;;;;;;;13.65;1.88;;;;;;;19.38;54.74;102699.25;5080133;28;20073;-66
2022/10/11 11:26:29;;;;;;;9.02;2.33;;;;;;;18.92;56.60;102708.50;5047494;28;20043;-66
2022/10/11 11:29:25;;;;;;;8.85;2.22;;;;;;;18.18;58.48;102709.28;5091556;28;20063;-66
2022/10/11 11:32:02;;;;;;;9.52;2.33;;;;;;;17.78;63.96;102703.28;5094170;28;20398;-66